Time;durP1;ratioP1;P1;durP2;ratioP2;P2;SDS_P1;SDS_P2;PMS_P1;PMS_P2;Temp;Humidity;BMP_temperature;BMP_pressure;BME280_temperature;BME280_humidity;BME280_pressure;Samples;Min_cycle;Max_cycle;Signal;HPM_P1;HPM_P2
2021/01/12 00:01:48;;;;;;;25.83;13.83;;;6.70;97.50;;;;;;4920318;29;20066;-81
2021/01/12 00:04:14;;;;;;;20.23;13.10;;;6.70;97.60;;;;;;4920262;29;20103;-79
2021/01/12 00:06:41;;;;;;;24.20;13.87;;;6.70;97.60;;;;;;4923842;29;20075;-79
2021/01/12 00:09:07;;;;;;;22.03;13.27;;;6.70;97.60;;;;;;4955895;29;20554;-79
2021/01/12 00:11:33;;;;;;;20.53;12.37;;;6.70;97.60;;;;;;4938674;29;20154;-81
2021/01/12 00:13:58;;;;;;;21.70;13.83;;;6.70;97.60;;;;;;4939156;29;20031;-79
2021/01/12 00:16:24;;;;;;;23.53;13.37;;;6.80;97.60;;;;;;4939087;29;20090;-79
2021/01/12 00:18:49;;;;;;;21.53;13.33;;;6.80;97.60;;;;;;4956450;29;20035;-80
2021/01/12 00:21:15;;;;;;;22.27;13.83;;;6.80;97.60;;;;;;4956054;29;20023;-78
2021/01/12 00:23:41;;;;;;;21.30;13.33;;;6.90;97.70;;;;;;4956074;29;20039;-83
2021/01/12 00:26:10;;;;;;;20.87;13.90;;;6.90;97.70;;;;;;4938845;29;20211;-79
2021/01/12 00:28:36;;;;;;;21.63;13.70;;;6.80;97.60;;;;;;4955787;29;20043;-80
2021/01/12 00:31:03;;;;;;;23.23;13.77;;;6.90;97.70;;;;;;4938826;29;20488;-79
2021/01/12 00:33:29;;;;;;;24.30;14.67;;;6.90;97.70;;;;;;4955627;29;20061;-76
2021/01/12 00:35:54;;;;;;;21.60;14.23;;;6.80;97.70;;;;;;4938572;29;20035;-79
2021/01/12 00:38:20;;;;;;;27.27;16.03;;;6.90;97.70;;;;;;4922603;29;20471;-80
2021/01/12 00:40:46;;;;;;;23.17;15.73;;;6.90;97.80;;;;;;4955871;29;20038;-77
2021/01/12 00:43:11;;;;;;;26.00;16.93;;;6.90;97.80;;;;;;4955683;29;20086;-79
2021/01/12 00:45:37;;;;;;;28.03;18.03;;;6.90;98.10;;;;;;4938645;29;20548;-78
2021/01/12 00:48:02;;;;;;;30.93;18.47;;;6.90;97.80;;;;;;4938602;29;20035;-80
2021/01/12 00:50:28;;;;;;;29.87;19.13;;;6.90;97.80;;;;;;4955658;29;20110;-81
2021/01/12 00:52:53;;;;;;;30.63;19.53;;;6.90;97.80;;;;;;4955640;29;20483;-79
2021/01/12 00:55:19;;;;;;;28.90;19.33;;;6.90;97.80;;;;;;4955552;29;20039;-80
2021/01/12 00:57:45;;;;;;;29.13;19.83;;;6.90;97.80;;;;;;4955490;29;20039;-77
2021/01/12 01:00:11;;;;;;;33.63;19.50;;;6.90;97.80;;;;;;4955422;29;20497;-77
2021/01/12 01:02:36;;;;;;;33.33;20.13;;;6.90;97.80;;;;;;4938442;29;20495;-79
2021/01/12 01:05:02;;;;;;;34.00;21.30;;;6.90;97.80;;;;;;4955521;29;20027;-78
2021/01/12 01:07:27;;;;;;;36.37;20.97;;;6.90;97.90;;;;;;4955421;29;20474;-77
2021/01/12 01:09:53;;;;;;;30.73;21.17;;;6.90;97.90;;;;;;4938276;29;20046;-76
2021/01/12 01:12:19;;;;;;;36.87;20.87;;;6.70;97.80;;;;;;4938243;29;20118;-76
2021/01/12 01:14:44;;;;;;;34.03;21.50;;;6.80;97.90;;;;;;4955330;29;20039;-80
2021/01/12 01:17:10;;;;;;;34.13;21.73;;;6.90;98.00;;;;;;4938043;29;20039;-77
2021/01/12 01:19:35;;;;;;;32.70;20.47;;;6.80;98.00;;;;;;4938665;29;20027;-81
2021/01/12 01:22:01;;;;;;;38.43;20.97;;;6.80;98.00;;;;;;4955313;29;20090;-76
2021/01/12 01:24:26;;;;;;;31.63;20.77;;;6.80;98.00;;;;;;4955117;29;20028;-78
2021/01/12 01:26:56;;;;;;;37.30;20.87;;;6.80;98.10;;;;;;4955399;29;20176;-78
2021/01/12 01:29:22;;;;;;;34.50;20.83;;;6.80;98.10;;;;;;4955144;29;20114;-78
2021/01/12 01:31:47;;;;;;;30.00;20.13;;;6.80;98.20;;;;;;4955237;29;20118;-80
2021/01/12 01:34:13;;;;;;;35.13;19.57;;;6.80;98.20;;;;;;4954882;29;20134;-78
2021/01/12 01:36:38;;;;;;;31.07;19.57;;;6.80;98.30;;;;;;4937950;29;20031;-79
2021/01/12 01:39:04;;;;;;;30.40;18.60;;;6.80;98.30;;;;;;4955133;29;20455;-78
2021/01/12 01:41:30;;;;;;;32.77;18.63;;;6.70;98.30;;;;;;4906471;29;20067;-79
2021/01/12 01:43:56;;;;;;;30.87;17.97;;;6.80;98.30;;;;;;4937993;29;20031;-78
2021/01/12 01:46:21;;;;;;;29.20;18.00;;;6.70;98.30;;;;;;4954944;29;20102;-79
2021/01/12 01:48:48;;;;;;;29.53;16.80;;;6.70;98.30;;;;;;4954711;28;20433;-80
2021/01/12 01:51:15;;;;;;;29.47;15.93;;;6.70;98.40;;;;;;4957890;29;20031;-80
2021/01/12 01:53:41;;;;;;;26.90;15.67;;;6.70;98.40;;;;;;4958737;29;20039;-81
2021/01/12 01:56:07;;;;;;;23.63;13.67;;;6.80;98.40;;;;;;4958707;29;20028;-79
2021/01/12 01:58:42;;;;;;;22.33;13.57;;;6.70;98.40;;;;;;4958514;29;20085;-79
2021/01/12 02:01:11;;;;;;;26.43;14.43;;;6.80;98.40;;;;;;4941495;29;20412;-79
2021/01/12 02:03:48;;;;;;;26.63;15.43;;;6.70;98.40;;;;;;4958638;29;20475;-79
2021/01/12 02:06:24;;;;;;;24.10;12.93;;;6.90;98.50;;;;;;4941171;29;20038;-80
2021/01/12 02:08:59;;;;;;;23.70;13.70;;;6.80;98.50;;;;;;4941253;29;20382;-80
2021/01/12 02:11:27;;;;;;;26.43;14.17;;;6.80;98.50;;;;;;4958680;29;20387;-79
2021/01/12 02:14:01;;;;;;;24.90;14.27;;;6.80;98.50;;;;;;4958545;29;20041;-79
2021/01/12 02:16:28;;;;;;;;;;;6.80;98.50;;;;;;4958722;29;20110;-79
2021/01/12 02:18:55;;;;;;;23.70;12.80;;;6.80;98.50;;;;;;4958390;29;20278;-78
2021/01/12 02:21:21;;;;;;;21.70;12.63;;;6.90;98.50;;;;;;4958492;29;20027;-78
2021/01/12 02:23:51;;;;;;;21.07;12.23;;;6.80;98.50;;;;;;4958421;29;20483;-78
2021/01/12 02:26:17;;;;;;;24.07;13.70;;;6.80;98.60;;;;;;4958363;29;20063;-79
2021/01/12 02:28:43;;;;;;;21.50;12.57;;;6.80;98.60;;;;;;4941283;29;20144;-78
2021/01/12 02:31:09;;;;;;;21.47;11.80;;;6.80;98.60;;;;;;4958405;29;20502;-78
2021/01/12 02:33:40;;;;;;;21.23;12.63;;;6.90;98.60;;;;;;4924803;29;20044;-78
2021/01/12 02:36:13;;;;;;;19.50;10.87;;;6.90;98.60;;;;;;4941692;29;20031;-78
2021/01/12 02:38:40;;;;;;;21.43;11.63;;;6.90;98.60;;;;;;4958348;29;20438;-78
2021/01/12 02:41:17;;;;;;;18.83;10.43;;;6.90;98.70;;;;;;4958238;29;20019;-78
2021/01/12 02:43:44;;;;;;;17.53;9.43;;;7.00;98.70;;;;;;4957915;29;20114;-78
2021/01/12 02:46:12;;;;;;;16.63;9.03;;;7.00;98.70;;;;;;4958029;29;20035;-78
2021/01/12 02:48:38;;;;;;;16.17;8.47;;;7.00;98.80;;;;;;4940588;29;20126;-78
2021/01/12 02:51:07;;;;;;;12.77;7.07;;;7.00;98.80;;;;;;4957712;29;20074;-79
2021/01/12 02:53:33;;;;;;;11.73;6.13;;;7.10;98.80;;;;;;4940495;29;20030;-79
2021/01/12 02:55:59;;;;;;;11.63;5.43;;;7.10;98.80;;;;;;4957743;29;20046;-79
2021/01/12 02:58:24;;;;;;;10.23;5.27;;;7.10;98.70;;;;;;4940312;29;20023;-78
2021/01/12 03:00:50;;;;;;;13.53;5.70;;;7.10;98.70;;;;;;4924625;29;20062;-78
2021/01/12 03:03:15;;;;;;;9.60;5.40;;;7.10;98.70;;;;;;4957744;29;20384;-81
2021/01/12 03:05:41;;;;;;;9.27;4.23;;;7.10;98.70;;;;;;4940872;29;20035;-78
2021/01/12 03:08:07;;;;;;;9.50;3.87;;;7.10;98.70;;;;;;4940342;29;20035;-79
2021/01/12 03:10:33;;;;;;;6.53;2.83;;;7.10;98.70;;;;;;4957630;29;20430;-81
2021/01/12 03:12:59;;;;;;;6.43;3.00;;;7.20;98.70;;;;;;4957398;29;20098;-78
2021/01/12 03:15:25;;;;;;;3.87;1.80;;;7.20;98.70;;;;;;4957616;29;20035;-79
2021/01/12 03:17:50;;;;;;;4.43;1.90;;;7.20;98.60;;;;;;4957369;29;20094;-79
2021/01/12 03:20:16;;;;;;;4.43;1.60;;;7.30;98.60;;;;;;4957674;29;20361;-79
2021/01/12 03:22:41;;;;;;;2.40;1.00;;;7.20;98.60;;;;;;4940284;29;20062;-79
2021/01/12 03:25:08;;;;;;;3.30;1.10;;;7.20;98.60;;;;;;4940071;29;20031;-78
2021/01/12 03:27:34;;;;;;;3.70;1.00;;;7.20;98.60;;;;;;4957168;29;20073;-79
2021/01/12 03:30:00;;;;;;;2.57;0.90;;;7.20;98.60;;;;;;4957187;29;20035;-79
2021/01/12 03:32:26;;;;;;;2.20;1.00;;;7.30;98.60;;;;;;4939887;29;20032;-80
2021/01/12 03:34:51;;;;;;;2.20;0.80;;;7.20;98.60;;;;;;4936583;29;20085;-78
2021/01/12 03:37:17;;;;;;;1.60;0.70;;;7.30;98.60;;;;;;4936562;29;20032;-79
2021/01/12 03:39:43;;;;;;;1.67;0.50;;;7.30;98.60;;;;;;4936615;29;20032;-78
2021/01/12 03:42:08;;;;;;;1.20;0.50;;;7.30;98.60;;;;;;4936718;29;20031;-78
2021/01/12 03:44:34;;;;;;;1.40;0.50;;;7.30;98.60;;;;;;4936573;29;20050;-78
2021/01/12 03:47:00;;;;;;;0.93;0.40;;;7.40;98.60;;;;;;4936513;29;21096;-77
2021/01/12 03:49:25;;;;;;;0.77;0.40;;;7.30;98.60;;;;;;4937553;29;20035;-78
2021/01/12 03:51:51;;;;;;;0.60;0.30;;;7.30;98.60;;;;;;4936361;29;20111;-78
2021/01/12 03:54:17;;;;;;;0.63;0.20;;;7.30;98.60;;;;;;4936232;29;20106;-80
2021/01/12 03:56:43;;;;;;;0.73;0.30;;;7.20;98.50;;;;;;4936249;29;20055;-78
2021/01/12 03:59:09;;;;;;;2.20;0.40;;;7.30;98.60;;;;;;4920328;29;20020;-78
2021/01/12 04:01:40;;;;;;;0.40;0.20;;;7.30;98.50;;;;;;4937304;29;20111;-79
2021/01/12 04:04:07;;;;;;;0.67;0.30;;;7.30;98.50;;;;;;4937316;29;20031;-78
2021/01/12 04:06:32;;;;;;;0.60;0.30;;;7.30;98.50;;;;;;4937338;29;20032;-79
2021/01/12 04:08:58;;;;;;;1.17;0.40;;;7.30;98.50;;;;;;4934986;29;20034;-80
2021/01/12 04:11:24;;;;;;;1.03;0.30;;;7.30;98.50;;;;;;4918870;29;20460;-78
2021/01/12 04:13:49;;;;;;;0.60;0.20;;;7.30;98.50;;;;;;4935705;29;20028;-78
2021/01/12 04:16:15;;;;;;;0.83;0.30;;;7.40;98.50;;;;;;4937117;29;20039;-79
2021/01/12 04:18:41;;;;;;;0.83;0.37;;;7.40;98.50;;;;;;4936850;29;20032;-78
2021/01/12 04:21:06;;;;;;;0.53;0.23;;;7.40;98.60;;;;;;4920089;29;20027;-79
2021/01/12 04:23:32;;;;;;;0.60;0.30;;;7.40;98.60;;;;;;4935829;29;20028;-80
2021/01/12 04:25:57;;;;;;;1.27;0.37;;;7.40;98.60;;;;;;4935782;29;20039;-79
2021/01/12 04:28:23;;;;;;;0.40;0.20;;;7.40;98.60;;;;;;4935812;29;20039;-79
2021/01/12 04:30:49;;;;;;;0.77;0.27;;;7.40;98.60;;;;;;4935718;29;20038;-80
2021/01/12 04:33:15;;;;;;;1.97;0.20;;;7.40;98.60;;;;;;4935383;29;20130;-79
2021/01/12 04:35:40;;;;;;;0.77;0.27;;;7.40;98.70;;;;;;4935661;29;20387;-78
2021/01/12 04:38:06;;;;;;;0.80;0.20;;;7.40;98.70;;;;;;4937325;29;20032;-77
2021/01/12 04:40:32;;;;;;;0.73;0.20;;;7.50;98.70;;;;;;4935571;29;20032;-79
2021/01/12 04:42:58;;;;;;;0.50;0.20;;;7.40;98.60;;;;;;4936760;29;20032;-78
2021/01/12 04:45:25;;;;;;;0.50;0.20;;;7.50;98.70;;;;;;4935423;29;20024;-76
2021/01/12 04:47:50;;;;;;;0.27;0.17;;;7.50;98.70;;;;;;4936550;29;20051;-79
2021/01/12 04:50:16;;;;;;;0.50;0.20;;;7.60;98.70;;;;;;4936461;29;20115;-80
2021/01/12 04:52:50;;;;;;;0.30;0.20;;;7.50;98.60;;;;;;4936417;29;20430;-79
2021/01/12 04:55:16;;;;;;;;;;;7.50;98.60;;;;;;4936832;29;20039;-81
2021/01/12 04:57:43;;;;;;;0.33;0.20;;;7.50;98.60;;;;;;4936797;28;19911;-79
2021/01/12 05:00:13;;;;;;;0.40;0.20;;;7.50;98.60;;;;;;4937407;28;20116;-79
2021/01/12 05:02:40;;;;;;;0.20;0.10;;;7.50;98.60;;;;;;4916133;29;20171;-80
2021/01/12 05:05:07;;;;;;;0.20;0.10;;;7.50;98.60;;;;;;4915939;29;20024;-79
2021/01/12 05:07:36;;;;;;;0.20;0.20;;;7.50;98.50;;;;;;4915991;29;20028;-79
2021/01/12 05:10:08;;;;;;;0.30;0.17;;;7.50;98.50;;;;;;4917218;29;20088;-80
2021/01/12 05:12:34;;;;;;;0.30;0.10;;;7.50;98.50;;;;;;4915931;29;20036;-79
2021/01/12 05:15:00;;;;;;;0.13;0.10;;;7.50;98.50;;;;;;4916058;29;20492;-78
2021/01/12 05:17:32;;;;;;;0.30;0.20;;;7.50;98.50;;;;;;4916270;29;20056;-79
2021/01/12 05:20:02;;;;;;;1.57;0.10;;;7.60;98.50;;;;;;4915987;29;20420;-79
2021/01/12 05:22:30;;;;;;;1.23;0.10;;;7.50;98.50;;;;;;4917534;29;20591;-79
2021/01/12 05:25:19;;;;;;;0.30;0.10;;;7.50;98.50;;;;;;4916435;29;20032;-80
2021/01/12 05:27:42;;;;;;;0.43;0.20;;;7.50;98.50;;;;;;4916941;29;20452;-77
2021/01/12 05:30:09;;;;;;;0.60;0.20;;;7.50;98.50;;;;;;4917074;29;20032;-79
2021/01/12 05:32:39;;;;;;;0.20;0.10;;;7.60;98.50;;;;;;4916921;29;20028;-78
2021/01/12 05:35:08;;;;;;;0.10;0.10;;;7.50;98.50;;;;;;4935665;29;20447;-78
2021/01/12 05:37:34;;;;;;;0.40;0.20;;;7.60;98.50;;;;;;4935801;29;20480;-78
2021/01/12 05:40:04;;;;;;;0.17;0.10;;;7.60;98.50;;;;;;4919239;29;20032;-78
2021/01/12 05:42:31;;;;;;;0.57;0.20;;;7.60;98.50;;;;;;4935802;29;20431;-78
2021/01/12 05:44:57;;;;;;;0.30;0.13;;;7.60;98.50;;;;;;4935944;29;20055;-78
2021/01/12 05:47:23;;;;;;;0.30;0.10;;;7.60;98.50;;;;;;4935866;29;20031;-76
2021/01/12 05:49:52;;;;;;;0.97;0.20;;;7.60;98.50;;;;;;4935962;29;20031;-79
2021/01/12 05:52:19;;;;;;;0.30;0.10;;;7.70;98.50;;;;;;4935726;29;20031;-78
2021/01/12 05:55:05;;;;;;;0.13;0.10;;;7.60;98.50;;;;;;4935721;29;20059;-78
2021/01/12 05:57:37;;;;;;;0.50;0.20;;;7.60;98.50;;;;;;4935593;29;20035;-78
2021/01/12 06:00:05;;;;;;;0.30;0.20;;;7.60;98.50;;;;;;4918568;29;20019;-78
2021/01/12 06:02:32;;;;;;;0.50;0.20;;;7.60;98.50;;;;;;4935688;29;20020;-79
2021/01/12 06:04:58;;;;;;;0.37;0.10;;;7.60;98.50;;;;;;4935809;29;20030;-79
2021/01/12 06:07:26;;;;;;;0.40;0.20;;;7.70;98.50;;;;;;4918606;29;20118;-78
2021/01/12 06:09:54;;;;;;;0.10;0.10;;;7.60;98.50;;;;;;4935405;29;20035;-79
2021/01/12 06:12:25;;;;;;;0.60;0.20;;;7.70;98.50;;;;;;4935428;29;20028;-78
2021/01/12 06:14:52;;;;;;;0.30;0.10;;;7.60;98.50;;;;;;4935572;29;20032;-79
2021/01/12 06:17:18;;;;;;;0.20;0.10;;;7.70;98.50;;;;;;4935335;29;20122;-79
2021/01/12 06:19:46;;;;;;;0.27;0.10;;;7.60;98.50;;;;;;4935668;29;20035;-78
2021/01/12 06:22:16;;;;;;;0.50;0.10;;;7.70;98.50;;;;;;4919293;29;20479;-79
2021/01/12 06:24:47;;;;;;;0.00;0.00;;;7.70;98.50;;;;;;4932859;29;20020;-79
2021/01/12 06:27:12;;;;;;;0.20;0.10;;;7.70;98.50;;;;;;4954687;29;20034;-78
2021/01/12 06:29:46;;;;;;;0.17;0.10;;;7.70;98.50;;;;;;4941133;29;20110;-78
2021/01/12 06:32:22;;;;;;;0.10;0.10;;;7.70;98.50;;;;;;4943892;28;20023;-78
2021/01/12 06:34:53;;;;;;;0.00;0.00;;;7.70;98.50;;;;;;4973755;28;20058;-78
2021/01/12 06:37:20;;;;;;;0.20;0.10;;;7.70;98.50;;;;;;4959707;28;20066;-78
2021/01/12 06:39:57;;;;;;;0.20;0.10;;;7.70;98.50;;;;;;4961735;28;20032;-78
2021/01/12 06:42:26;;;;;;;0.17;0.13;;;7.70;98.50;;;;;;4941009;28;20045;-78
2021/01/12 06:44:53;;;;;;;0.20;0.10;;;7.70;98.50;;;;;;4950454;29;20047;-78
2021/01/12 06:47:30;;;;;;;0.23;0.10;;;7.70;98.40;;;;;;4940425;29;20031;-78
2021/01/12 06:50:12;;;;;;;0.30;0.00;;;7.70;98.40;;;;;;4957342;29;20034;-78
2021/01/12 06:52:42;;;;;;;0.40;0.20;;;7.70;98.40;;;;;;4957856;29;20031;-79
2021/01/12 06:55:09;;;;;;;0.23;0.10;;;7.70;98.30;;;;;;4909457;29;20048;-79
2021/01/12 06:57:35;;;;;;;0.20;0.20;;;7.60;98.30;;;;;;4952546;29;20404;-78
2021/01/12 07:00:05;;;;;;;0.20;0.10;;;7.60;98.30;;;;;;4956533;29;20118;-78
2021/01/12 07:02:31;;;;;;;0.10;0.10;;;7.60;98.30;;;;;;4922053;29;20027;-78
2021/01/12 07:04:57;;;;;;;0.10;0.10;;;7.60;98.30;;;;;;4954223;29;20031;-78
2021/01/12 07:07:24;;;;;;;0.17;0.10;;;7.50;98.30;;;;;;4933792;29;20443;-78
2021/01/12 07:09:53;;;;;;;1.17;0.10;;;7.50;98.30;;;;;;4957698;29;20055;-78
2021/01/12 07:12:21;;;;;;;0.43;0.10;;;7.50;98.30;;;;;;4956963;29;20082;-78
2021/01/12 07:14:49;;;;;;;0.20;0.10;;;7.50;98.60;;;;;;4939827;29;20538;-78
2021/01/12 07:17:28;;;;;;;0.17;0.10;;;7.50;98.30;;;;;;4957551;29;20392;-78
2021/01/12 07:20:03;;;;;;;0.10;0.10;;;7.40;98.30;;;;;;4957015;29;20027;-78
2021/01/12 07:22:37;;;;;;;0.10;0.10;;;7.40;98.30;;;;;;4932928;29;20364;-78
2021/01/12 07:25:06;;;;;;;0.30;0.15;;;7.40;98.30;;;;;;4938146;29;20024;-79
2021/01/12 07:27:32;;;;;;;0.23;0.10;;;7.40;98.30;;;;;;4954433;29;20391;-78
2021/01/12 07:30:02;;;;;;;0.20;0.10;;;7.40;98.30;;;;;;4940357;29;20031;-79
2021/01/12 07:32:38;;;;;;;0.20;0.10;;;7.40;98.30;;;;;;4957237;29;20027;-80
2021/01/12 07:35:09;;;;;;;0.10;0.10;;;7.40;98.30;;;;;;4939652;29;20050;-74
2021/01/12 07:37:38;;;;;;;0.10;0.10;;;7.40;98.30;;;;;;4956915;29;20027;-74
2021/01/12 07:40:06;;;;;;;0.20;0.10;;;7.40;98.30;;;;;;4940001;29;20382;-75
2021/01/12 07:42:32;;;;;;;0.10;0.10;;;7.30;98.30;;;;;;4957235;29;20024;-74
2021/01/12 07:44:58;;;;;;;0.20;0.10;;;7.30;98.30;;;;;;4924003;29;20138;-74
2021/01/12 07:47:25;;;;;;;0.10;0.10;;;7.30;98.30;;;;;;4939070;29;20027;-76
2021/01/12 07:49:51;;;;;;;0.10;0.00;;;7.30;98.30;;;;;;4956712;29;20059;-74
2021/01/12 07:52:21;;;;;;;0.33;0.10;;;7.40;98.30;;;;;;4956754;29;20082;-75
2021/01/12 07:54:47;;;;;;;0.10;0.10;;;7.30;98.30;;;;;;4956736;29;20086;-74
2021/01/12 07:57:13;;;;;;;0.03;0.03;;;7.30;98.30;;;;;;4956391;29;20030;-74
2021/01/12 07:59:40;;;;;;;0.10;0.10;;;7.30;98.30;;;;;;4924071;29;20023;-74
2021/01/12 08:02:06;;;;;;;0.10;0.10;;;7.30;98.30;;;;;;4956532;29;20542;-76
2021/01/12 08:04:32;;;;;;;0.40;0.10;;;7.30;98.30;;;;;;4933768;29;20028;-74
2021/01/12 08:06:59;;;;;;;0.20;0.10;;;7.30;98.30;;;;;;4923719;29;20040;-73
2021/01/12 08:09:25;;;;;;;0.00;0.00;;;7.30;98.30;;;;;;4939383;29;20035;-74
2021/01/12 08:11:54;;;;;;;0.17;0.10;;;7.30;98.30;;;;;;4955995;29;20027;-74
2021/01/12 08:14:26;;;;;;;0.20;0.10;;;7.30;98.30;;;;;;4938179;29;20064;-76
2021/01/12 08:16:55;;;;;;;0.10;0.10;;;7.30;98.30;;;;;;4922936;29;22438;-76
2021/01/12 08:19:22;;;;;;;0.10;0.10;;;7.30;98.30;;;;;;4939292;29;20051;-75
2021/01/12 08:21:49;;;;;;;0.20;0.10;;;7.30;98.30;;;;;;4938945;29;20395;-75
2021/01/12 08:24:21;;;;;;;0.30;0.10;;;7.30;98.30;;;;;;4956080;29;20420;-74
2021/01/12 08:26:48;;;;;;;0.37;0.13;;;7.20;98.30;;;;;;4956180;29;20035;-75
2021/01/12 08:29:19;;;;;;;0.40;0.10;;;7.20;98.30;;;;;;4938841;29;20480;-76
2021/01/12 08:31:48;;;;;;;0.20;0.10;;;7.30;98.30;;;;;;4938653;29;20038;-76
2021/01/12 08:34:18;;;;;;;0.20;0.10;;;7.20;98.20;;;;;;4938757;29;20388;-75
2021/01/12 08:36:44;;;;;;;0.20;0.10;;;7.20;98.30;;;;;;4938550;29;20450;-76
2021/01/12 08:39:10;;;;;;;0.20;0.10;;;7.20;98.20;;;;;;4939234;29;20444;-75
2021/01/12 08:41:41;;;;;;;0.10;0.10;;;7.20;98.30;;;;;;4938836;29;20087;-74
2021/01/12 08:44:09;;;;;;;0.40;0.10;;;7.20;98.30;;;;;;4956026;29;20078;-77
2021/01/12 08:46:34;;;;;;;0.10;0.10;;;7.20;98.30;;;;;;4919974;29;20058;-76
2021/01/12 08:49:00;;;;;;;0.40;0.10;;;7.20;98.20;;;;;;4903847;29;20063;-76
2021/01/12 08:51:30;;;;;;;0.20;0.10;;;7.10;98.10;;;;;;4919689;29;20030;-74
2021/01/12 08:53:56;;;;;;;0.27;0.20;;;7.10;98.00;;;;;;4920209;29;20091;-76
2021/01/12 08:56:23;;;;;;;0.40;0.10;;;6.90;98.00;;;;;;4936588;29;20103;-74
2021/01/12 08:58:48;;;;;;;0.60;0.20;;;6.90;98.00;;;;;;4919297;29;20040;-73
2021/01/12 09:01:14;;;;;;;0.10;0.10;;;6.80;98.00;;;;;;4919402;29;20036;-77
2021/01/12 09:03:42;;;;;;;0.10;0.10;;;6.80;98.00;;;;;;4936659;29;20039;-74
2021/01/12 09:06:28;;;;;;;0.40;0.17;;;6.70;98.00;;;;;;4919826;29;20183;-73
2021/01/12 09:09:04;;;;;;;0.13;0.10;;;6.70;98.00;;;;;;4919303;29;20547;-73
2021/01/12 09:11:29;;;;;;;0.37;0.13;;;6.70;98.10;;;;;;4936365;29;20731;-74
2021/01/12 09:14:03;;;;;;;0.40;0.13;;;6.70;98.10;;;;;;4919077;29;20040;-74
2021/01/12 09:16:29;;;;;;;0.10;0.10;;;6.70;98.10;;;;;;4936234;29;20031;-75
2021/01/12 09:18:55;;;;;;;0.43;0.10;;;6.70;98.10;;;;;;4903428;29;20028;-74
2021/01/12 09:21:23;;;;;;;0.30;0.10;;;6.70;98.20;;;;;;4919198;29;20030;-75
2021/01/12 09:23:48;;;;;;;0.10;0.10;;;6.70;98.20;;;;;;4918943;29;20032;-75
2021/01/12 09:26:19;;;;;;;0.20;0.10;;;6.90;98.30;;;;;;4936537;29;20024;-74
2021/01/12 09:28:44;;;;;;;0.10;0.10;;;6.80;98.30;;;;;;4936077;29;20027;-74
2021/01/12 09:31:16;;;;;;;0.10;0.10;;;6.90;98.20;;;;;;4919136;29;20525;-75
2021/01/12 09:33:49;;;;;;;0.03;0.03;;;6.80;98.20;;;;;;4919042;29;20052;-74
2021/01/12 09:36:17;;;;;;;0.13;0.10;;;6.70;98.20;;;;;;4918993;29;20028;-73
2021/01/12 09:38:50;;;;;;;0.57;0.10;;;6.70;98.20;;;;;;4936416;29;20379;-74
2021/01/12 09:41:21;;;;;;;0.10;0.10;;;6.70;98.20;;;;;;4919205;29;20024;-74
2021/01/12 09:43:47;;;;;;;0.10;0.10;;;6.60;98.10;;;;;;4936368;29;20099;-74
2021/01/12 09:46:12;;;;;;;0.20;0.10;;;6.60;98.10;;;;;;4923898;29;20110;-76
2021/01/12 09:48:39;;;;;;;0.10;0.10;;;6.60;98.10;;;;;;4950387;29;20035;-76
2021/01/12 09:51:05;;;;;;;0.10;0.10;;;6.60;98.10;;;;;;4937902;29;20051;-74
2021/01/12 09:53:31;;;;;;;0.10;0.10;;;6.50;98.10;;;;;;4954920;29;20155;-75
2021/01/12 09:55:57;;;;;;;0.10;0.10;;;6.50;98.10;;;;;;4937630;29;20091;-75
2021/01/12 09:58:23;;;;;;;0.20;0.10;;;6.50;97.90;;;;;;4906154;29;20126;-73
2021/01/12 10:00:49;;;;;;;0.10;0.10;;;6.40;98.10;;;;;;4955040;29;20419;-74
2021/01/12 10:03:14;;;;;;;0.10;0.10;;;6.50;98.20;;;;;;4937923;29;20047;-75
2021/01/12 10:05:41;;;;;;;0.20;0.10;;;6.50;98.30;;;;;;4922106;29;20043;-74
2021/01/12 10:08:07;;;;;;;0.10;0.10;;;6.50;98.30;;;;;;4955319;29;20042;-73
2021/01/12 10:10:34;;;;;;;0.40;0.10;;;6.60;98.30;;;;;;4955301;28;20042;-74
2021/01/12 10:13:02;;;;;;;0.10;0.10;;;6.50;98.30;;;;;;4942330;29;20039;-74
2021/01/12 10:15:28;;;;;;;0.10;0.10;;;6.60;98.30;;;;;;4943478;29;20043;-74
2021/01/12 10:17:53;;;;;;;0.10;0.10;;;6.60;98.30;;;;;;4946010;29;20040;-73
2021/01/12 10:20:19;;;;;;;0.20;0.07;;;6.50;98.20;;;;;;4912062;29;20063;-75
2021/01/12 10:22:45;;;;;;;0.10;0.10;;;6.50;98.20;;;;;;4935608;29;20439;-75
2021/01/12 10:25:12;;;;;;;0.03;0.03;;;6.50;98.20;;;;;;4922554;29;20036;-74
2021/01/12 10:27:38;;;;;;;0.10;0.10;;;6.50;98.20;;;;;;4944204;29;20035;-76
2021/01/12 10:30:06;;;;;;;0.10;0.10;;;6.50;98.30;;;;;;4946201;29;20036;-76
2021/01/12 10:32:32;;;;;;;0.17;0.00;;;6.50;98.30;;;;;;4922712;29;20113;-75
2021/01/12 10:34:58;;;;;;;0.10;0.10;;;6.70;98.60;;;;;;4940752;29;20057;-74
2021/01/12 10:37:24;;;;;;;0.10;0.10;;;6.80;98.70;;;;;;4958328;29;20042;-74
2021/01/12 10:39:49;;;;;;;0.53;0.10;;;6.90;98.80;;;;;;4924751;29;20043;-75
2021/01/12 10:42:15;;;;;;;0.00;0.00;;;6.80;98.60;;;;;;4906492;29;20123;-74
2021/01/12 10:44:41;;;;;;;0.10;0.10;;;6.70;98.40;;;;;;4912482;29;20036;-74
2021/01/12 10:47:06;;;;;;;0.10;0.10;;;6.60;98.20;;;;;;4949350;29;20106;-74
2021/01/12 10:49:32;;;;;;;0.10;0.10;;;6.60;98.20;;;;;;4913571;29;20080;-74
2021/01/12 10:51:59;;;;;;;0.10;0.10;;;6.50;98.20;;;;;;4924747;29;20038;-74
2021/01/12 10:54:26;;;;;;;0.10;0.10;;;6.50;98.30;;;;;;4930988;29;20107;-73
2021/01/12 10:56:52;;;;;;;0.00;0.00;;;6.40;98.20;;;;;;4932270;29;20482;-76
2021/01/12 10:59:17;;;;;;;0.00;0.00;;;6.50;98.50;;;;;;4935353;29;20092;-74
2021/01/12 11:01:43;;;;;;;0.10;0.10;;;6.70;98.90;;;;;;4908687;29;20487;-74
2021/01/12 11:04:09;;;;;;;0.00;0.00;;;7.10;99.80;;;;;;4956508;29;20368;-75
2021/01/12 11:06:37;;;;;;;0.10;0.10;;;7.60;99.90;;;;;;4945710;29;20035;-74
2021/01/12 11:09:04;;;;;;;0.10;0.10;;;7.80;99.90;;;;;;4921388;29;20451;-73
2021/01/12 11:11:34;;;;;;;0.07;0.00;;;8.10;99.90;;;;;;4921507;29;20040;-73
2021/01/12 11:14:03;;;;;;;0.00;0.00;;;8.20;99.90;;;;;;4921201;29;20039;-74
2021/01/12 11:16:37;;;;;;;0.00;0.00;;;8.50;99.90;;;;;;4921022;29;20090;-74
2021/01/12 11:19:03;;;;;;;0.00;0.00;;;9.10;99.90;;;;;;4938172;29;20032;-76
2021/01/12 11:21:29;;;;;;;0.30;0.00;;;9.60;99.90;;;;;;4938224;29;20464;-74
2021/01/12 11:23:55;;;;;;;0.43;0.00;;;10.00;99.90;;;;;;4920216;29;20031;-76
2021/01/12 11:26:31;;;;;;;0.00;0.00;;;10.30;99.90;;;;;;4921304;29;20538;-76
2021/01/12 11:28:57;;;;;;;0.30;0.00;;;10.60;99.90;;;;;;4920855;29;20032;-74
2021/01/12 11:31:23;;;;;;;0.00;0.00;;;11.00;99.90;;;;;;4920878;29;20032;-74
2021/01/12 11:33:49;;;;;;;0.00;0.00;;;11.20;99.90;;;;;;4920812;29;20066;-75
2021/01/12 11:36:15;;;;;;;0.00;0.00;;;11.20;99.90;;;;;;4921018;29;20048;-74
2021/01/12 11:38:40;;;;;;;0.00;0.00;;;11.20;99.90;;;;;;4920660;29;20039;-75
2021/01/12 11:41:13;;;;;;;0.10;0.00;;;11.40;99.90;;;;;;4889714;29;20035;-75
2021/01/12 11:43:39;;;;;;;0.00;0.00;;;11.40;99.90;;;;;;4905029;29;20043;-74
2021/01/12 11:46:05;;;;;;;0.08;0.00;;;11.40;99.90;;;;;;4937660;29;20505;-74
2021/01/12 11:48:32;;;;;;;0.10;0.00;;;11.50;99.90;;;;;;4937872;29;20067;-75
2021/01/12 11:50:57;;;;;;;0.00;0.00;;;11.60;99.90;;;;;;4937541;29;20039;-76
2021/01/12 11:53:23;;;;;;;0.20;0.00;;;11.60;99.90;;;;;;4904899;29;20511;-77
2021/01/12 11:55:49;;;;;;;0.00;0.00;;;11.50;99.90;;;;;;4937696;29;20115;-77
2021/01/12 11:58:14;;;;;;;0.00;0.00;;;11.40;99.90;;;;;;4920403;29;20042;-76
2021/01/12 12:00:41;;;;;;;0.00;0.00;;;11.50;99.90;;;;;;4904699;29;20423;-77
2021/01/12 12:03:07;;;;;;;0.10;0.00;;;11.50;99.90;;;;;;4904807;29;20031;-76
2021/01/12 12:05:33;;;;;;;0.00;0.00;;;11.40;99.30;;;;;;4920260;29;20122;-77
2021/01/12 12:07:59;;;;;;;0.00;0.00;;;11.20;99.50;;;;;;4920073;29;20119;-78
2021/01/12 12:10:26;;;;;;;0.30;0.10;;;11.20;99.60;;;;;;4911960;29;20090;-78
2021/01/12 12:12:52;;;;;;;0.08;0.03;;;11.30;99.90;;;;;;4931044;29;20043;-77
2021/01/12 12:15:18;;;;;;;0.20;0.00;;;11.40;99.80;;;;;;4930711;29;20027;-78
2021/01/12 12:17:43;;;;;;;0.30;0.10;;;11.70;99.90;;;;;;4909594;28;20063;-74
2021/01/12 12:20:11;;;;;;;0.00;0.00;;;12.10;99.90;;;;;;4948168;28;20069;-77
2021/01/12 12:22:37;;;;;;;0.22;0.00;;;12.60;99.90;;;;;;4957616;28;20386;-75
2021/01/12 12:25:03;;;;;;;0.10;0.00;;;12.80;99.90;;;;;;4915646;29;20031;-77
2021/01/12 12:27:29;;;;;;;0.00;0.00;;;12.60;98.20;;;;;;4936959;29;20495;-77
2021/01/12 12:29:54;;;;;;;0.50;0.00;;;12.10;97.40;;;;;;4904255;29;20055;-77
2021/01/12 12:32:22;;;;;;;0.75;0.00;;;11.70;98.00;;;;;;4925412;29;20114;-77
2021/01/12 12:34:48;;;;;;;1.02;0.00;;;11.40;98.00;;;;;;4915042;29;20054;-76
2021/01/12 12:37:13;;;;;;;0.05;0.00;;;11.20;98.10;;;;;;4938253;29;20031;-76
2021/01/12 12:39:39;;;;;;;0.10;0.00;;;11.20;98.70;;;;;;4922636;29;20038;-76
2021/01/12 12:42:05;;;;;;;0.10;0.00;;;11.10;98.90;;;;;;4938612;29;20031;-76
2021/01/12 12:44:32;;;;;;;0.05;0.00;;;11.40;99.90;;;;;;4938406;29;20078;-76
2021/01/12 12:47:01;;;;;;;0.08;0.00;;;11.80;99.90;;;;;;4938278;29;20033;-76
2021/01/12 12:49:27;;;;;;;0.15;0.00;;;12.40;99.90;;;;;;4929218;29;20035;-76
2021/01/12 12:51:52;;;;;;;0.45;0.13;;;12.80;99.90;;;;;;4888381;29;20546;-76
2021/01/12 12:54:20;;;;;;;1.08;0.10;;;13.40;99.90;;;;;;4919826;29;20028;-75